Somers Point, New Jersey
Current Conditions -  °F | °C
As of 8:54 AM on Thursday 29 Jan 2015 (Local Time) from KACY Reporting Station
Clear Clear  
Wind Chill: 14°   Ceiling: Unl
Heat Index: 23°   Visibility: 10mi
Dew Point:   Wind: 8mph
Humidity: 46%   Direction: 20°NNE
Pressure: 30.33"   Gusts: NA
Location:  39.31°N, 74.6°W
Report Text: KACY 291354Z AUTO 02007KT 10SM CLR M05/M15 A3033 RMK AO2 SLP272 T10501150 TSNO
Loading
Personal Weather Stations






























Interactive Weather Map New forecast layout! Learn more

10-Day Weather Forecast

Advertisements
Track Severe Weather on mobile